sensor_id;sensor_type;location;lat;lon;timestamp;P1;durP1;ratioP1;P2;durP2;ratioP2
5776;SDS011;2914;42.668;23.346;2022-11-15T00:02:01;121.60;;;54.30;;
5776;SDS011;2914;42.668;23.346;2022-11-15T00:04:30;158.10;;;62.50;;
5776;SDS011;2914;42.668;23.346;2022-11-15T00:07:00;139.37;;;58.23;;
5776;SDS011;2914;42.668;23.346;2022-11-15T00:09:29;151.77;;;63.37;;
5776;SDS011;2914;42.668;23.346;2022-11-15T00:11:58;162.13;;;64.93;;
5776;SDS011;2914;42.668;23.346;2022-11-15T00:14:27;148.27;;;62.80;;
5776;SDS011;2914;42.668;23.346;2022-11-15T00:16:56;134.67;;;60.13;;
5776;SDS011;2914;42.668;23.346;2022-11-15T00:19:25;160.87;;;66.60;;
5776;SDS011;2914;42.668;23.346;2022-11-15T00:21:54;159.77;;;66.17;;
5776;SDS011;2914;42.668;23.346;2022-11-15T00:24:24;162.90;;;67.33;;
5776;SDS011;2914;42.668;23.346;2022-11-15T00:26:53;182.77;;;75.97;;
5776;SDS011;2914;42.668;23.346;2022-11-15T00:29:22;157.97;;;70.97;;
5776;SDS011;2914;42.668;23.346;2022-11-15T00:31:52;189.83;;;76.77;;
5776;SDS011;2914;42.668;23.346;2022-11-15T00:34:21;168.07;;;72.30;;
5776;SDS011;2914;42.668;23.346;2022-11-15T00:36:50;168.30;;;76.27;;
5776;SDS011;2914;42.668;23.346;2022-11-15T00:39:21;178.70;;;74.40;;
5776;SDS011;2914;42.668;23.346;2022-11-15T00:41:51;180.37;;;71.47;;
5776;SDS011;2914;42.668;23.346;2022-11-15T00:44:20;184.20;;;71.37;;
5776;SDS011;2914;42.668;23.346;2022-11-15T00:46:51;166.47;;;71.73;;
5776;SDS011;2914;42.668;23.346;2022-11-15T00:49:28;163.90;;;69.77;;
5776;SDS011;2914;42.668;23.346;2022-11-15T00:51:57;162.00;;;67.10;;
5776;SDS011;2914;42.668;23.346;2022-11-15T00:54:27;171.20;;;69.50;;
5776;SDS011;2914;42.668;23.346;2022-11-15T00:56:57;160.40;;;65.37;;
5776;SDS011;2914;42.668;23.346;2022-11-15T00:59:25;147.57;;;64.87;;
5776;SDS011;2914;42.668;23.346;2022-11-15T01:01:54;163.17;;;61.90;;
5776;SDS011;2914;42.668;23.346;2022-11-15T01:04:24;148.60;;;59.97;;
5776;SDS011;2914;42.668;23.346;2022-11-15T01:06:53;138.93;;;61.53;;
5776;SDS011;2914;42.668;23.346;2022-11-15T01:09:22;151.07;;;60.37;;
5776;SDS011;2914;42.668;23.346;2022-11-15T01:11:52;151.90;;;59.03;;
5776;SDS011;2914;42.668;23.346;2022-11-15T01:14:21;129.53;;;54.80;;
5776;SDS011;2914;42.668;23.346;2022-11-15T01:16:52;146.57;;;56.90;;
5776;SDS011;2914;42.668;23.346;2022-11-15T01:19:21;113.90;;;49.53;;
5776;SDS011;2914;42.668;23.346;2022-11-15T01:21:51;123.80;;;50.23;;
5776;SDS011;2914;42.668;23.346;2022-11-15T01:24:20;107.10;;;46.60;;
5776;SDS011;2914;42.668;23.346;2022-11-15T01:29:13;116.77;;;50.00;;
5776;SDS011;2914;42.668;23.346;2022-11-15T01:31:42;122.87;;;47.07;;
5776;SDS011;2914;42.668;23.346;2022-11-15T01:34:11;102.50;;;43.73;;
5776;SDS011;2914;42.668;23.346;2022-11-15T01:36:41;103.47;;;44.00;;
5776;SDS011;2914;42.668;23.346;2022-11-15T01:39:10;113.90;;;44.70;;
5776;SDS011;2914;42.668;23.346;2022-11-15T01:41:39;116.97;;;43.60;;
5776;SDS011;2914;42.668;23.346;2022-11-15T01:47:11;93.47;;;43.07;;
5776;SDS011;2914;42.668;23.346;2022-11-15T01:49:43;99.67;;;42.83;;
5776;SDS011;2914;42.668;23.346;2022-11-15T01:52:17;102.07;;;41.20;;
5776;SDS011;2914;42.668;23.346;2022-11-15T01:54:47;105.73;;;45.47;;
5776;SDS011;2914;42.668;23.346;2022-11-15T01:57:18;97.63;;;41.93;;
5776;SDS011;2914;42.668;23.346;2022-11-15T01:59:48;96.13;;;43.87;;
5776;SDS011;2914;42.668;23.346;2022-11-15T02:02:17;96.60;;;43.07;;
5776;SDS011;2914;42.668;23.346;2022-11-15T02:04:55;120.70;;;44.27;;
5776;SDS011;2914;42.668;23.346;2022-11-15T02:07:27;94.73;;;40.40;;
5776;SDS011;2914;42.668;23.346;2022-11-15T02:09:58;98.13;;;43.90;;
5776;SDS011;2914;42.668;23.346;2022-11-15T02:12:30;116.00;;;49.83;;
5776;SDS011;2914;42.668;23.346;2022-11-15T02:15:00;118.43;;;51.50;;
5776;SDS011;2914;42.668;23.346;2022-11-15T02:17:37;130.53;;;54.37;;
5776;SDS011;2914;42.668;23.346;2022-11-15T02:20:39;126.80;;;52.47;;
5776;SDS011;2914;42.668;23.346;2022-11-15T02:33:00;120.73;;;51.97;;
5776;SDS011;2914;42.668;23.346;2022-11-15T02:35:34;137.50;;;55.63;;
5776;SDS011;2914;42.668;23.346;2022-11-15T02:38:06;126.50;;;49.40;;
5776;SDS011;2914;42.668;23.346;2022-11-15T02:40:39;105.73;;;50.20;;
5776;SDS011;2914;42.668;23.346;2022-11-15T02:43:11;117.73;;;48.60;;
5776;SDS011;2914;42.668;23.346;2022-11-15T02:46:01;135.50;;;49.27;;
5776;SDS011;2914;42.668;23.346;2022-11-15T02:48:33;115.80;;;49.00;;
5776;SDS011;2914;42.668;23.346;2022-11-15T02:51:03;108.60;;;47.70;;
5776;SDS011;2914;42.668;23.346;2022-11-15T02:53:33;132.10;;;49.40;;
5776;SDS011;2914;42.668;23.346;2022-11-15T02:56:02;108.27;;;44.37;;
5776;SDS011;2914;42.668;23.346;2022-11-15T02:58:39;106.10;;;44.77;;
5776;SDS011;2914;42.668;23.346;2022-11-15T03:01:41;99.60;;;42.47;;
5776;SDS011;2914;42.668;23.346;2022-11-15T03:04:16;108.33;;;42.73;;
5776;SDS011;2914;42.668;23.346;2022-11-15T03:06:49;103.83;;;42.70;;
5776;SDS011;2914;42.668;23.346;2022-11-15T03:09:23;99.40;;;42.77;;
5776;SDS011;2914;42.668;23.346;2022-11-15T03:11:55;115.40;;;49.27;;
5776;SDS011;2914;42.668;23.346;2022-11-15T03:14:27;116.43;;;48.43;;
5776;SDS011;2914;42.668;23.346;2022-11-15T03:16:58;111.00;;;47.63;;
5776;SDS011;2914;42.668;23.346;2022-11-15T03:19:33;96.10;;;43.13;;
5776;SDS011;2914;42.668;23.346;2022-11-15T03:22:04;110.37;;;49.00;;
5776;SDS011;2914;42.668;23.346;2022-11-15T03:24:36;112.20;;;48.20;;
5776;SDS011;2914;42.668;23.346;2022-11-15T03:27:08;105.43;;;46.53;;
5776;SDS011;2914;42.668;23.346;2022-11-15T03:29:41;129.40;;;53.87;;
5776;SDS011;2914;42.668;23.346;2022-11-15T03:32:12;125.37;;;47.23;;
5776;SDS011;2914;42.668;23.346;2022-11-15T03:34:47;126.37;;;50.97;;
5776;SDS011;2914;42.668;23.346;2022-11-15T03:37:20;110.17;;;45.87;;
5776;SDS011;2914;42.668;23.346;2022-11-15T03:39:53;120.73;;;49.17;;
5776;SDS011;2914;42.668;23.346;2022-11-15T03:42:24;107.20;;;47.23;;
5776;SDS011;2914;42.668;23.346;2022-11-15T03:44:57;97.10;;;44.80;;
5776;SDS011;2914;42.668;23.346;2022-11-15T03:47:29;102.03;;;43.93;;
5776;SDS011;2914;42.668;23.346;2022-11-15T03:50:01;108.33;;;45.10;;
5776;SDS011;2914;42.668;23.346;2022-11-15T03:52:32;96.73;;;42.53;;
5776;SDS011;2914;42.668;23.346;2022-11-15T03:55:11;104.57;;;42.50;;
5776;SDS011;2914;42.668;23.346;2022-11-15T03:57:43;111.43;;;45.07;;
5776;SDS011;2914;42.668;23.346;2022-11-15T04:00:15;115.70;;;49.30;;
5776;SDS011;2914;42.668;23.346;2022-11-15T04:02:53;102.17;;;47.00;;
5776;SDS011;2914;42.668;23.346;2022-11-15T04:05:24;112.20;;;46.77;;
5776;SDS011;2914;42.668;23.346;2022-11-15T04:08:02;111.67;;;48.57;;
5776;SDS011;2914;42.668;23.346;2022-11-15T04:10:32;108.23;;;48.87;;
5776;SDS011;2914;42.668;23.346;2022-11-15T04:13:01;109.67;;;50.87;;
5776;SDS011;2914;42.668;23.346;2022-11-15T04:15:30;107.17;;;49.93;;
5776;SDS011;2914;42.668;23.346;2022-11-15T04:18:00;112.27;;;49.80;;
5776;SDS011;2914;42.668;23.346;2022-11-15T04:20:30;131.80;;;53.50;;
5776;SDS011;2914;42.668;23.346;2022-11-15T04:23:17;131.77;;;53.90;;
5776;SDS011;2914;42.668;23.346;2022-11-15T04:26:05;137.80;;;57.20;;
5776;SDS011;2914;42.668;23.346;2022-11-15T04:28:36;131.43;;;52.87;;
5776;SDS011;2914;42.668;23.346;2022-11-15T04:31:07;116.23;;;51.47;;
5776;SDS011;2914;42.668;23.346;2022-11-15T04:33:36;118.93;;;48.27;;
5776;SDS011;2914;42.668;23.346;2022-11-15T04:36:07;107.43;;;45.97;;
5776;SDS011;2914;42.668;23.346;2022-11-15T04:38:45;130.30;;;49.93;;
5776;SDS011;2914;42.668;23.346;2022-11-15T04:41:15;120.07;;;47.03;;
5776;SDS011;2914;42.668;23.346;2022-11-15T04:43:44;122.67;;;47.23;;
5776;SDS011;2914;42.668;23.346;2022-11-15T04:46:13;111.37;;;44.67;;
5776;SDS011;2914;42.668;23.346;2022-11-15T04:48:43;108.83;;;44.20;;
5776;SDS011;2914;42.668;23.346;2022-11-15T04:51:13;92.57;;;41.97;;
5776;SDS011;2914;42.668;23.346;2022-11-15T04:53:43;104.83;;;44.37;;
5776;SDS011;2914;42.668;23.346;2022-11-15T04:56:14;102.97;;;44.53;;
5776;SDS011;2914;42.668;23.346;2022-11-15T04:58:43;84.77;;;40.17;;
5776;SDS011;2914;42.668;23.346;2022-11-15T05:01:12;98.60;;;40.70;;
5776;SDS011;2914;42.668;23.346;2022-11-15T05:03:43;90.67;;;38.40;;
5776;SDS011;2914;42.668;23.346;2022-11-15T05:06:30;79.30;;;35.70;;
5776;SDS011;2914;42.668;23.346;2022-11-15T05:09:12;68.30;;;34.17;;
5776;SDS011;2914;42.668;23.346;2022-11-15T05:11:42;57.57;;;29.50;;
5776;SDS011;2914;42.668;23.346;2022-11-15T05:14:13;54.67;;;25.80;;
5776;SDS011;2914;42.668;23.346;2022-11-15T05:16:43;53.83;;;24.97;;
5776;SDS011;2914;42.668;23.346;2022-11-15T05:19:15;64.10;;;25.00;;
5776;SDS011;2914;42.668;23.346;2022-11-15T05:21:45;63.27;;;27.30;;
5776;SDS011;2914;42.668;23.346;2022-11-15T05:24:14;56.20;;;26.47;;
5776;SDS011;2914;42.668;23.346;2022-11-15T05:26:45;56.00;;;26.53;;
5776;SDS011;2914;42.668;23.346;2022-11-15T05:29:14;62.30;;;27.07;;
5776;SDS011;2914;42.668;23.346;2022-11-15T05:31:44;66.37;;;26.20;;
5776;SDS011;2914;42.668;23.346;2022-11-15T05:34:13;67.87;;;24.80;;
5776;SDS011;2914;42.668;23.346;2022-11-15T05:36:44;51.53;;;21.63;;
5776;SDS011;2914;42.668;23.346;2022-11-15T05:39:13;53.00;;;25.20;;
5776;SDS011;2914;42.668;23.346;2022-11-15T05:41:43;70.47;;;25.73;;
5776;SDS011;2914;42.668;23.346;2022-11-15T05:44:16;65.07;;;20.57;;
5776;SDS011;2914;42.668;23.346;2022-11-15T05:46:46;54.57;;;21.90;;
5776;SDS011;2914;42.668;23.346;2022-11-15T05:49:20;47.70;;;19.80;;
5776;SDS011;2914;42.668;23.346;2022-11-15T05:51:51;38.07;;;18.17;;
5776;SDS011;2914;42.668;23.346;2022-11-15T05:54:21;46.10;;;17.97;;
5776;SDS011;2914;42.668;23.346;2022-11-15T05:56:52;42.30;;;19.17;;
5776;SDS011;2914;42.668;23.346;2022-11-15T05:59:22;46.80;;;20.40;;
5776;SDS011;2914;42.668;23.346;2022-11-15T06:01:52;51.70;;;20.37;;
5776;SDS011;2914;42.668;23.346;2022-11-15T06:04:31;48.70;;;19.93;;
5776;SDS011;2914;42.668;23.346;2022-11-15T06:07:00;45.37;;;20.37;;
5776;SDS011;2914;42.668;23.346;2022-11-15T06:09:29;47.33;;;19.23;;
5776;SDS011;2914;42.668;23.346;2022-11-15T06:11:59;43.73;;;20.37;;
5776;SDS011;2914;42.668;23.346;2022-11-15T06:14:36;58.13;;;20.70;;
5776;SDS011;2914;42.668;23.346;2022-11-15T06:17:05;53.03;;;22.00;;
5776;SDS011;2914;42.668;23.346;2022-11-15T06:19:44;52.37;;;22.90;;
5776;SDS011;2914;42.668;23.346;2022-11-15T06:22:13;52.07;;;21.47;;
5776;SDS011;2914;42.668;23.346;2022-11-15T06:24:42;50.47;;;22.23;;
5776;SDS011;2914;42.668;23.346;2022-11-15T06:27:30;60.97;;;24.17;;
5776;SDS011;2914;42.668;23.346;2022-11-15T06:29:59;78.63;;;25.90;;
5776;SDS011;2914;42.668;23.346;2022-11-15T06:32:29;76.40;;;27.37;;
5776;SDS011;2914;42.668;23.346;2022-11-15T06:34:58;75.97;;;27.43;;
5776;SDS011;2914;42.668;23.346;2022-11-15T06:37:27;65.43;;;26.70;;
5776;SDS011;2914;42.668;23.346;2022-11-15T06:39:56;62.07;;;26.57;;
5776;SDS011;2914;42.668;23.346;2022-11-15T06:42:25;67.13;;;24.70;;
5776;SDS011;2914;42.668;23.346;2022-11-15T06:44:54;54.40;;;25.00;;
5776;SDS011;2914;42.668;23.346;2022-11-15T06:47:26;68.60;;;27.80;;
5776;SDS011;2914;42.668;23.346;2022-11-15T06:49:55;81.33;;;27.40;;
5776;SDS011;2914;42.668;23.346;2022-11-15T06:52:24;51.70;;;24.07;;
5776;SDS011;2914;42.668;23.346;2022-11-15T06:54:55;68.47;;;26.70;;
5776;SDS011;2914;42.668;23.346;2022-11-15T06:57:24;62.60;;;28.13;;
5776;SDS011;2914;42.668;23.346;2022-11-15T06:59:53;54.67;;;24.77;;
5776;SDS011;2914;42.668;23.346;2022-11-15T07:02:22;56.57;;;24.50;;
5776;SDS011;2914;42.668;23.346;2022-11-15T07:04:51;60.40;;;24.80;;
5776;SDS011;2914;42.668;23.346;2022-11-15T07:07:20;72.80;;;25.50;;
5776;SDS011;2914;42.668;23.346;2022-11-15T07:09:51;54.43;;;24.10;;
5776;SDS011;2914;42.668;23.346;2022-11-15T07:12:20;51.90;;;23.67;;
5776;SDS011;2914;42.668;23.346;2022-11-15T07:14:50;69.67;;;25.90;;
5776;SDS011;2914;42.668;23.346;2022-11-15T07:17:20;52.77;;;24.83;;
5776;SDS011;2914;42.668;23.346;2022-11-15T07:19:49;57.40;;;25.37;;
5776;SDS011;2914;42.668;23.346;2022-11-15T07:22:18;58.80;;;24.60;;
5776;SDS011;2914;42.668;23.346;2022-11-15T07:24:47;64.80;;;26.17;;
5776;SDS011;2914;42.668;23.346;2022-11-15T07:27:16;55.30;;;24.30;;
5776;SDS011;2914;42.668;23.346;2022-11-15T07:29:46;61.60;;;25.37;;
5776;SDS011;2914;42.668;23.346;2022-11-15T07:32:15;55.37;;;24.40;;
5776;SDS011;2914;42.668;23.346;2022-11-15T07:34:44;65.30;;;25.97;;
5776;SDS011;2914;42.668;23.346;2022-11-15T07:37:13;58.97;;;25.90;;
5776;SDS011;2914;42.668;23.346;2022-11-15T07:39:43;62.33;;;25.90;;
5776;SDS011;2914;42.668;23.346;2022-11-15T07:42:12;64.37;;;25.10;;
5776;SDS011;2914;42.668;23.346;2022-11-15T07:44:58;53.50;;;26.00;;
5776;SDS011;2914;42.668;23.346;2022-11-15T07:47:29;54.93;;;25.63;;
5776;SDS011;2914;42.668;23.346;2022-11-15T07:49:59;56.97;;;25.83;;
5776;SDS011;2914;42.668;23.346;2022-11-15T07:52:28;69.93;;;27.57;;
5776;SDS011;2914;42.668;23.346;2022-11-15T07:54:57;57.13;;;26.40;;
5776;SDS011;2914;42.668;23.346;2022-11-15T07:57:26;68.37;;;29.00;;
5776;SDS011;2914;42.668;23.346;2022-11-15T07:59:55;65.00;;;27.70;;
5776;SDS011;2914;42.668;23.346;2022-11-15T08:02:24;68.40;;;28.83;;
5776;SDS011;2914;42.668;23.346;2022-11-15T08:04:53;78.83;;;30.97;;
5776;SDS011;2914;42.668;23.346;2022-11-15T08:07:22;64.10;;;29.60;;
5776;SDS011;2914;42.668;23.346;2022-11-15T08:09:51;77.43;;;29.20;;
5776;SDS011;2914;42.668;23.346;2022-11-15T08:12:21;78.73;;;30.43;;
5776;SDS011;2914;42.668;23.346;2022-11-15T08:14:50;69.50;;;33.00;;
5776;SDS011;2914;42.668;23.346;2022-11-15T08:17:20;77.00;;;31.53;;
5776;SDS011;2914;42.668;23.346;2022-11-15T08:19:49;69.30;;;31.97;;
5776;SDS011;2914;42.668;23.346;2022-11-15T08:22:19;94.37;;;32.80;;
5776;SDS011;2914;42.668;23.346;2022-11-15T08:24:48;74.13;;;30.90;;
5776;SDS011;2914;42.668;23.346;2022-11-15T08:27:18;70.07;;;31.33;;
5776;SDS011;2914;42.668;23.346;2022-11-15T08:29:47;72.03;;;30.33;;
5776;SDS011;2914;42.668;23.346;2022-11-15T08:32:16;71.17;;;31.60;;
5776;SDS011;2914;42.668;23.346;2022-11-15T08:34:45;76.50;;;32.03;;
5776;SDS011;2914;42.668;23.346;2022-11-15T08:37:14;92.23;;;34.90;;
5776;SDS011;2914;42.668;23.346;2022-11-15T08:39:43;82.17;;;33.33;;
5776;SDS011;2914;42.668;23.346;2022-11-15T08:42:12;81.40;;;34.07;;
5776;SDS011;2914;42.668;23.346;2022-11-15T08:44:42;76.97;;;33.60;;
5776;SDS011;2914;42.668;23.346;2022-11-15T08:47:11;80.70;;;34.83;;
5776;SDS011;2914;42.668;23.346;2022-11-15T08:49:40;84.27;;;34.80;;
5776;SDS011;2914;42.668;23.346;2022-11-15T08:52:09;74.90;;;34.13;;
5776;SDS011;2914;42.668;23.346;2022-11-15T08:54:40;76.33;;;34.80;;
5776;SDS011;2914;42.668;23.346;2022-11-15T08:57:09;80.63;;;34.80;;
5776;SDS011;2914;42.668;23.346;2022-11-15T08:59:38;78.47;;;34.37;;
5776;SDS011;2914;42.668;23.346;2022-11-15T09:02:11;88.90;;;33.77;;
5776;SDS011;2914;42.668;23.346;2022-11-15T09:04:42;82.53;;;35.30;;
5776;SDS011;2914;42.668;23.346;2022-11-15T09:07:11;107.70;;;36.00;;
5776;SDS011;2914;42.668;23.346;2022-11-15T09:09:41;74.67;;;33.47;;
5776;SDS011;2914;42.668;23.346;2022-11-15T09:12:10;95.83;;;36.33;;
5776;SDS011;2914;42.668;23.346;2022-11-15T09:14:39;107.33;;;40.23;;
5776;SDS011;2914;42.668;23.346;2022-11-15T09:17:08;85.90;;;37.47;;
5776;SDS011;2914;42.668;23.346;2022-11-15T09:19:38;100.23;;;37.33;;
5776;SDS011;2914;42.668;23.346;2022-11-15T09:22:07;104.37;;;37.40;;
5776;SDS011;2914;42.668;23.346;2022-11-15T09:24:37;99.57;;;38.67;;
5776;SDS011;2914;42.668;23.346;2022-11-15T09:27:06;98.47;;;37.80;;
5776;SDS011;2914;42.668;23.346;2022-11-15T09:29:35;83.00;;;37.07;;
5776;SDS011;2914;42.668;23.346;2022-11-15T09:32:05;86.83;;;38.60;;
5776;SDS011;2914;42.668;23.346;2022-11-15T09:34:34;99.17;;;41.70;;
5776;SDS011;2914;42.668;23.346;2022-11-15T09:37:03;99.30;;;41.10;;
5776;SDS011;2914;42.668;23.346;2022-11-15T09:39:32;105.67;;;42.67;;
5776;SDS011;2914;42.668;23.346;2022-11-15T09:42:08;103.50;;;41.87;;
5776;SDS011;2914;42.668;23.346;2022-11-15T09:44:54;107.97;;;44.33;;
5776;SDS011;2914;42.668;23.346;2022-11-15T09:47:48;109.87;;;43.20;;
5776;SDS011;2914;42.668;23.346;2022-11-15T09:50:36;115.63;;;45.80;;
5776;SDS011;2914;42.668;23.346;2022-11-15T09:53:09;116.13;;;41.90;;
5776;SDS011;2914;42.668;23.346;2022-11-15T09:55:48;106.37;;;44.80;;
5776;SDS011;2914;42.668;23.346;2022-11-15T09:58:29;115.17;;;44.17;;
5776;SDS011;2914;42.668;23.346;2022-11-15T10:01:00;107.93;;;44.13;;
5776;SDS011;2914;42.668;23.346;2022-11-15T10:03:45;130.57;;;47.10;;
5776;SDS011;2914;42.668;23.346;2022-11-15T10:06:17;111.10;;;45.30;;
5776;SDS011;2914;42.668;23.346;2022-11-15T10:08:49;112.17;;;45.13;;
5776;SDS011;2914;42.668;23.346;2022-11-15T10:11:22;106.07;;;44.00;;
5776;SDS011;2914;42.668;23.346;2022-11-15T10:13:53;106.40;;;45.10;;
5776;SDS011;2914;42.668;23.346;2022-11-15T10:16:33;110.37;;;46.10;;
5776;SDS011;2914;42.668;23.346;2022-11-15T10:19:11;113.50;;;45.10;;
5776;SDS011;2914;42.668;23.346;2022-11-15T10:21:46;142.70;;;47.53;;
5776;SDS011;2914;42.668;23.346;2022-11-15T10:24:19;99.97;;;42.60;;
5776;SDS011;2914;42.668;23.346;2022-11-15T10:26:54;109.70;;;46.87;;
5776;SDS011;2914;42.668;23.346;2022-11-15T10:29:24;103.13;;;44.27;;
5776;SDS011;2914;42.668;23.346;2022-11-15T10:31:53;104.87;;;44.27;;
5776;SDS011;2914;42.668;23.346;2022-11-15T10:34:23;143.57;;;48.57;;
5776;SDS011;2914;42.668;23.346;2022-11-15T10:36:57;117.13;;;45.50;;
5776;SDS011;2914;42.668;23.346;2022-11-15T10:39:28;106.67;;;45.20;;
5776;SDS011;2914;42.668;23.346;2022-11-15T10:42:00;111.83;;;44.47;;
5776;SDS011;2914;42.668;23.346;2022-11-15T10:44:44;99.57;;;43.33;;
5776;SDS011;2914;42.668;23.346;2022-11-15T10:50:26;106.20;;;45.73;;
5776;SDS011;2914;42.668;23.346;2022-11-15T10:52:57;113.40;;;46.90;;
5776;SDS011;2914;42.668;23.346;2022-11-15T10:55:29;111.97;;;43.03;;
5776;SDS011;2914;42.668;23.346;2022-11-15T10:58:02;102.47;;;44.07;;
5776;SDS011;2914;42.668;23.346;2022-11-15T11:00:34;101.30;;;44.50;;
5776;SDS011;2914;42.668;23.346;2022-11-15T11:03:06;123.57;;;46.47;;
5776;SDS011;2914;42.668;23.346;2022-11-15T11:06:07;107.97;;;44.07;;
5776;SDS011;2914;42.668;23.346;2022-11-15T11:08:39;120.13;;;44.40;;
5776;SDS011;2914;42.668;23.346;2022-11-15T11:11:09;112.47;;;46.23;;
5776;SDS011;2914;42.668;23.346;2022-11-15T11:13:39;117.67;;;48.57;;
5776;SDS011;2914;42.668;23.346;2022-11-15T11:16:20;110.83;;;44.90;;
5776;SDS011;2914;42.668;23.346;2022-11-15T11:19:04;130.83;;;47.50;;
5776;SDS011;2914;42.668;23.346;2022-11-15T11:21:40;113.77;;;45.40;;
5776;SDS011;2914;42.668;23.346;2022-11-15T11:24:14;127.40;;;47.27;;
5776;SDS011;2914;42.668;23.346;2022-11-15T11:26:51;123.83;;;46.70;;
5776;SDS011;2914;42.668;23.346;2022-11-15T11:29:24;134.23;;;48.43;;
5776;SDS011;2914;42.668;23.346;2022-11-15T11:31:57;138.90;;;49.70;;
5776;SDS011;2914;42.668;23.346;2022-11-15T11:34:40;130.57;;;48.87;;
5776;SDS011;2914;42.668;23.346;2022-11-15T11:37:12;130.87;;;47.47;;
5776;SDS011;2914;42.668;23.346;2022-11-15T11:39:45;114.87;;;44.67;;
5776;SDS011;2914;42.668;23.346;2022-11-15T11:42:18;110.80;;;45.20;;
5776;SDS011;2914;42.668;23.346;2022-11-15T11:44:52;106.80;;;45.80;;
5776;SDS011;2914;42.668;23.346;2022-11-15T11:47:24;110.53;;;45.40;;
5776;SDS011;2914;42.668;23.346;2022-11-15T11:49:57;122.67;;;46.00;;
5776;SDS011;2914;42.668;23.346;2022-11-15T11:52:31;117.63;;;46.73;;
5776;SDS011;2914;42.668;23.346;2022-11-15T11:55:02;110.83;;;45.63;;
5776;SDS011;2914;42.668;23.346;2022-11-15T11:57:37;114.00;;;44.57;;
5776;SDS011;2914;42.668;23.346;2022-11-15T12:00:14;111.10;;;43.87;;
5776;SDS011;2914;42.668;23.346;2022-11-15T12:02:47;123.43;;;47.47;;
5776;SDS011;2914;42.668;23.346;2022-11-15T12:05:22;114.33;;;44.50;;
5776;SDS011;2914;42.668;23.346;2022-11-15T12:08:01;107.43;;;45.63;;
5776;SDS011;2914;42.668;23.346;2022-11-15T12:10:33;112.83;;;42.70;;
5776;SDS011;2914;42.668;23.346;2022-11-15T12:13:06;91.10;;;41.40;;
5776;SDS011;2914;42.668;23.346;2022-11-15T12:15:39;101.47;;;42.37;;
5776;SDS011;2914;42.668;23.346;2022-11-15T12:18:09;98.23;;;44.00;;
5776;SDS011;2914;42.668;23.346;2022-11-15T12:20:41;96.50;;;40.80;;
5776;SDS011;2914;42.668;23.346;2022-11-15T12:23:13;120.20;;;45.07;;
5776;SDS011;2914;42.668;23.346;2022-11-15T12:25:45;111.97;;;45.57;;
5776;SDS011;2914;42.668;23.346;2022-11-15T12:28:17;125.50;;;46.80;;
5776;SDS011;2914;42.668;23.346;2022-11-15T12:30:50;101.73;;;42.37;;
5776;SDS011;2914;42.668;23.346;2022-11-15T12:33:31;107.83;;;43.03;;
5776;SDS011;2914;42.668;23.346;2022-11-15T12:36:04;121.27;;;42.80;;
5776;SDS011;2914;42.668;23.346;2022-11-15T12:38:53;101.87;;;43.83;;
5776;SDS011;2914;42.668;23.346;2022-11-15T12:41:24;115.03;;;45.83;;
5776;SDS011;2914;42.668;23.346;2022-11-15T12:43:54;120.43;;;47.73;;
5776;SDS011;2914;42.668;23.346;2022-11-15T12:49:43;108.03;;;46.10;;
5776;SDS011;2914;42.668;23.346;2022-11-15T12:52:14;107.30;;;43.70;;
5776;SDS011;2914;42.668;23.346;2022-11-15T12:54:51;109.43;;;45.63;;
5776;SDS011;2914;42.668;23.346;2022-11-15T12:57:32;102.57;;;43.93;;
5776;SDS011;2914;42.668;23.346;2022-11-15T13:00:36;110.57;;;45.67;;
5776;SDS011;2914;42.668;23.346;2022-11-15T13:03:18;96.80;;;40.83;;
5776;SDS011;2914;42.668;23.346;2022-11-15T13:05:53;105.80;;;44.00;;
5776;SDS011;2914;42.668;23.346;2022-11-15T13:08:42;103.90;;;42.70;;
5776;SDS011;2914;42.668;23.346;2022-11-15T13:20:26;102.67;;;44.60;;
5776;SDS011;2914;42.668;23.346;2022-11-15T13:23:01;104.53;;;44.03;;
5776;SDS011;2914;42.668;23.346;2022-11-15T13:25:57;97.90;;;41.20;;
5776;SDS011;2914;42.668;23.346;2022-11-15T13:28:36;94.93;;;43.03;;
5776;SDS011;2914;42.668;23.346;2022-11-15T13:31:22;88.77;;;42.27;;
5776;SDS011;2914;42.668;23.346;2022-11-15T13:33:54;98.07;;;44.77;;
5776;SDS011;2914;42.668;23.346;2022-11-15T13:36:26;122.53;;;45.87;;
5776;SDS011;2914;42.668;23.346;2022-11-15T13:39:00;111.87;;;44.70;;
5776;SDS011;2914;42.668;23.346;2022-11-15T13:41:32;101.70;;;44.17;;
5776;SDS011;2914;42.668;23.346;2022-11-15T13:44:03;104.90;;;43.40;;
5776;SDS011;2914;42.668;23.346;2022-11-15T13:46:46;101.27;;;44.23;;
5776;SDS011;2914;42.668;23.346;2022-11-15T13:49:15;100.00;;;44.17;;
5776;SDS011;2914;42.668;23.346;2022-11-15T13:51:45;100.73;;;44.10;;
5776;SDS011;2914;42.668;23.346;2022-11-15T13:54:19;103.60;;;44.40;;
5776;SDS011;2914;42.668;23.346;2022-11-15T13:56:52;124.70;;;48.30;;
5776;SDS011;2914;42.668;23.346;2022-11-15T13:59:23;103.30;;;44.50;;
5776;SDS011;2914;42.668;23.346;2022-11-15T14:01:54;100.63;;;43.40;;
5776;SDS011;2914;42.668;23.346;2022-11-15T14:04:27;113.30;;;47.77;;
5776;SDS011;2914;42.668;23.346;2022-11-15T14:07:00;107.37;;;46.50;;
5776;SDS011;2914;42.668;23.346;2022-11-15T14:09:34;102.90;;;46.10;;
5776;SDS011;2914;42.668;23.346;2022-11-15T14:12:22;116.70;;;47.83;;
5776;SDS011;2914;42.668;23.346;2022-11-15T14:14:53;112.17;;;46.00;;
5776;SDS011;2914;42.668;23.346;2022-11-15T14:17:33;111.17;;;48.77;;
5776;SDS011;2914;42.668;23.346;2022-11-15T14:20:19;122.80;;;51.17;;
5776;SDS011;2914;42.668;23.346;2022-11-15T14:22:57;114.27;;;49.87;;
5776;SDS011;2914;42.668;23.346;2022-11-15T14:25:27;122.63;;;48.87;;
5776;SDS011;2914;42.668;23.346;2022-11-15T14:28:28;124.10;;;48.73;;
5776;SDS011;2914;42.668;23.346;2022-11-15T14:30:59;122.90;;;50.20;;
5776;SDS011;2914;42.668;23.346;2022-11-15T14:33:32;120.83;;;48.63;;
5776;SDS011;2914;42.668;23.346;2022-11-15T14:36:04;105.47;;;46.00;;
5776;SDS011;2914;42.668;23.346;2022-11-15T14:38:35;109.50;;;47.23;;
5776;SDS011;2914;42.668;23.346;2022-11-15T14:41:04;121.30;;;46.97;;
5776;SDS011;2914;42.668;23.346;2022-11-15T14:43:35;96.83;;;43.57;;
5776;SDS011;2914;42.668;23.346;2022-11-15T14:46:05;116.93;;;46.47;;
5776;SDS011;2914;42.668;23.346;2022-11-15T14:48:33;106.57;;;46.57;;
5776;SDS011;2914;42.668;23.346;2022-11-15T14:51:07;104.40;;;46.57;;
5776;SDS011;2914;42.668;23.346;2022-11-15T14:53:38;110.53;;;46.33;;
5776;SDS011;2914;42.668;23.346;2022-11-15T14:56:08;119.67;;;45.10;;
5776;SDS011;2914;42.668;23.346;2022-11-15T14:58:37;110.17;;;47.37;;
5776;SDS011;2914;42.668;23.346;2022-11-15T15:01:10;118.03;;;48.00;;
5776;SDS011;2914;42.668;23.346;2022-11-15T15:03:41;111.17;;;47.70;;
5776;SDS011;2914;42.668;23.346;2022-11-15T15:06:11;105.13;;;46.20;;
5776;SDS011;2914;42.668;23.346;2022-11-15T15:08:40;120.70;;;47.10;;
5776;SDS011;2914;42.668;23.346;2022-11-15T15:11:10;111.10;;;47.20;;
5776;SDS011;2914;42.668;23.346;2022-11-15T15:13:55;130.97;;;47.43;;
5776;SDS011;2914;42.668;23.346;2022-11-15T15:16:26;117.30;;;48.57;;
5776;SDS011;2914;42.668;23.346;2022-11-15T15:18:56;113.60;;;50.13;;
5776;SDS011;2914;42.668;23.346;2022-11-15T15:21:25;110.70;;;47.03;;
5776;SDS011;2914;42.668;23.346;2022-11-15T15:23:57;116.63;;;49.20;;
5776;SDS011;2914;42.668;23.346;2022-11-15T15:26:26;110.67;;;47.33;;
5776;SDS011;2914;42.668;23.346;2022-11-15T15:28:56;113.67;;;48.50;;